createdAt,value
2022-12-18T00:01:32.434Z,49.90
2022-12-18T00:03:59.300Z,50.40
2022-12-18T00:06:26.537Z,49.80
2022-12-18T00:08:53.378Z,49.90
2022-12-18T00:11:20.872Z,49.80
2022-12-18T00:13:47.778Z,49.80
2022-12-18T00:16:15.432Z,49.80
2022-12-18T00:18:42.496Z,49.70
2022-12-18T00:21:09.865Z,49.70
2022-12-18T00:23:37.252Z,49.80
2022-12-18T00:26:05.030Z,49.70
2022-12-18T00:28:31.741Z,49.80
2022-12-18T00:31:05.473Z,49.70
2022-12-18T00:33:32.393Z,49.70
2022-12-18T00:36:10.044Z,49.60
2022-12-18T00:38:36.939Z,49.80
2022-12-18T00:41:03.787Z,49.70
2022-12-18T00:43:30.470Z,49.70
2022-12-18T00:45:57.200Z,49.70
2022-12-18T00:48:23.914Z,49.70
2022-12-18T00:50:50.727Z,49.80
2022-12-18T00:53:17.499Z,49.70
2022-12-18T00:55:44.240Z,49.70
2022-12-18T00:58:11.248Z,49.60
2022-12-18T01:00:39.051Z,49.70
2022-12-18T01:03:05.855Z,50.30
2022-12-18T01:05:32.688Z,49.70
2022-12-18T01:07:59.500Z,49.70
2022-12-18T01:10:26.188Z,49.60
2022-12-18T01:12:52.788Z,49.60
2022-12-18T01:15:19.527Z,49.60
2022-12-18T01:17:46.150Z,49.60
2022-12-18T01:20:12.877Z,49.70
2022-12-18T01:22:39.507Z,49.60
2022-12-18T01:25:06.716Z,49.70
2022-12-18T01:27:34.151Z,49.60
2022-12-18T01:30:00.809Z,49.70
2022-12-18T01:32:27.401Z,49.60
2022-12-18T01:34:54.012Z,49.50
2022-12-18T01:37:20.695Z,49.50
2022-12-18T01:39:47.335Z,49.50
2022-12-18T01:42:14.540Z,49.50
2022-12-18T01:45:00.130Z,49.50
2022-12-18T01:47:31.501Z,49.60
2022-12-18T01:49:58.560Z,49.60
2022-12-18T01:52:25.572Z,49.60
2022-12-18T01:54:52.365Z,49.40
2022-12-18T01:57:19.020Z,49.40
2022-12-18T01:59:46.259Z,49.40
2022-12-18T02:02:13.068Z,49.40
2022-12-18T02:04:47.835Z,49.40
2022-12-18T02:07:18.353Z,49.50
2022-12-18T02:09:47.353Z,49.40
2022-12-18T02:12:20.730Z,49.40
2022-12-18T02:14:50.355Z,49.50
2022-12-18T02:17:23.547Z,49.40
2022-12-18T02:20:03.725Z,49.40
2022-12-18T02:22:36.538Z,49.40
2022-12-18T02:25:06.808Z,49.50
2022-12-18T02:27:33.468Z,49.40
2022-12-18T02:30:00.550Z,49.30
2022-12-18T02:32:28.394Z,49.40
2022-12-18T02:34:55.327Z,49.30
2022-12-18T02:37:21.918Z,49.30
2022-12-18T02:39:48.655Z,49.40
2022-12-18T02:42:15.496Z,49.40
2022-12-18T02:44:45.915Z,49.40
2022-12-18T02:47:13.749Z,49.40
2022-12-18T02:49:52.522Z,49.30
2022-12-18T02:52:29.329Z,49.30
2022-12-18T02:54:56.017Z,49.30
2022-12-18T02:57:22.654Z,49.30
2022-12-18T02:59:57.722Z,49.40
2022-12-18T03:02:27.519Z,49.40
2022-12-18T03:05:14.698Z,49.30
2022-12-18T03:07:43.662Z,49.30
2022-12-18T03:10:11.018Z,49.30
2022-12-18T03:12:38.978Z,49.30
2022-12-18T03:15:07.776Z,49.30
2022-12-18T03:17:34.573Z,49.30
2022-12-18T03:20:04.056Z,49.30
2022-12-18T03:22:31.287Z,49.20
2022-12-18T03:24:58.533Z,49.30
2022-12-18T03:27:25.246Z,49.20
2022-12-18T03:30:10.903Z,49.20
2022-12-18T03:32:56.486Z,49.30
2022-12-18T03:35:27.893Z,49.20
2022-12-18T03:37:54.579Z,49.20
2022-12-18T03:40:25.718Z,49.20
2022-12-18T03:42:53.046Z,49.20
2022-12-18T03:45:22.852Z,49.20
2022-12-18T03:47:52.311Z,49.10
2022-12-18T03:50:23.443Z,49.10
2022-12-18T03:52:53.175Z,49.10
2022-12-18T03:55:19.896Z,49.10
2022-12-18T03:57:46.577Z,49.00
2022-12-18T04:00:14.001Z,49.00
2022-12-18T04:02:41.991Z,49.00
2022-12-18T04:05:08.838Z,49.00
2022-12-18T04:07:35.987Z,49.10
2022-12-18T04:10:02.749Z,49.00
2022-12-18T04:12:29.883Z,49.00
2022-12-18T04:14:56.647Z,49.00
2022-12-18T04:17:23.615Z,49.00
2022-12-18T04:19:50.389Z,49.00
2022-12-18T04:22:17.063Z,49.10
2022-12-18T04:24:43.744Z,49.00
2022-12-18T04:27:10.428Z,49.00
2022-12-18T04:29:37.113Z,49.00
2022-12-18T04:32:03.842Z,49.00
2022-12-18T04:34:30.549Z,49.00
2022-12-18T04:36:57.638Z,49.00
2022-12-18T04:39:24.380Z,49.00
2022-12-18T04:41:51.700Z,49.00
2022-12-18T04:44:18.446Z,48.90
2022-12-18T04:46:45.218Z,48.90
2022-12-18T04:49:11.972Z,48.90
2022-12-18T04:51:38.715Z,49.00
2022-12-18T04:54:05.440Z,48.90
2022-12-18T04:56:32.380Z,49.00
2022-12-18T04:58:59.074Z,49.00
2022-12-18T05:01:30.991Z,49.00
2022-12-18T05:04:01.228Z,48.90
2022-12-18T05:06:27.970Z,48.90
2022-12-18T05:08:54.686Z,48.80
2022-12-18T05:11:21.398Z,48.70
2022-12-18T05:13:48.101Z,48.80
2022-12-18T05:16:14.963Z,48.90
2022-12-18T05:18:41.693Z,48.90
2022-12-18T05:21:08.472Z,48.90
2022-12-18T05:23:35.726Z,48.80
2022-12-18T05:26:02.989Z,48.80
2022-12-18T05:28:29.950Z,48.80
2022-12-18T05:30:57.636Z,48.80
2022-12-18T05:33:25.320Z,48.80
2022-12-18T05:35:52.977Z,48.80
2022-12-18T05:38:20.120Z,48.80
2022-12-18T05:40:47.110Z,48.80
2022-12-18T05:43:19.362Z,48.70
2022-12-18T05:45:47.840Z,48.70
2022-12-18T05:48:14.672Z,48.70
2022-12-18T05:50:41.833Z,48.80
2022-12-18T05:53:08.634Z,48.70
2022-12-18T05:55:38.777Z,48.70
2022-12-18T05:58:05.608Z,48.80
2022-12-18T06:00:33.141Z,48.70
2022-12-18T06:03:00.186Z,48.70
2022-12-18T06:05:27.013Z,48.70
2022-12-18T06:07:53.803Z,48.80
2022-12-18T06:10:20.504Z,48.70
2022-12-18T06:12:47.158Z,48.70
2022-12-18T06:15:14.239Z,48.70
2022-12-18T06:17:41.270Z,48.70
2022-12-18T06:20:08.181Z,48.70
2022-12-18T06:22:35.943Z,48.70
2022-12-18T06:25:02.632Z,48.70
2022-12-18T06:27:29.678Z,48.70
2022-12-18T06:29:56.539Z,48.70
2022-12-18T06:32:23.245Z,48.70
2022-12-18T06:34:49.959Z,48.70
2022-12-18T06:37:16.749Z,48.70
2022-12-18T06:39:43.432Z,48.70
2022-12-18T06:42:10.172Z,48.60
2022-12-18T06:44:36.866Z,48.70
2022-12-18T06:47:03.738Z,48.60
2022-12-18T06:49:30.831Z,48.70
2022-12-18T06:51:57.625Z,48.70
2022-12-18T06:54:24.310Z,48.70
2022-12-18T06:56:51.031Z,48.70
2022-12-18T06:59:17.964Z,48.60
2022-12-18T07:01:44.820Z,48.60
2022-12-18T07:04:11.741Z,48.60
2022-12-18T07:06:38.412Z,48.70
2022-12-18T07:09:05.088Z,48.60
2022-12-18T07:11:33.386Z,48.60
2022-12-18T07:14:00.100Z,48.60
2022-12-18T07:16:27.005Z,48.60
2022-12-18T07:18:53.905Z,48.60
2022-12-18T07:21:20.702Z,48.50
2022-12-18T07:23:49.054Z,48.50
2022-12-18T07:26:16.781Z,48.50
2022-12-18T07:28:43.537Z,48.70
2022-12-18T07:31:11.338Z,48.70
2022-12-18T07:33:38.983Z,47.80
2022-12-18T07:36:06.536Z,48.40
2022-12-18T07:38:33.548Z,48.50
2022-12-18T07:41:03.939Z,48.50
2022-12-18T07:43:33.595Z,48.60
2022-12-18T07:46:00.745Z,48.50
2022-12-18T07:48:27.542Z,48.50
2022-12-18T07:50:54.437Z,48.50
2022-12-18T07:53:21.190Z,48.40
2022-12-18T07:56:18.349Z,48.40
2022-12-18T07:58:34.606Z,48.40
2022-12-18T08:01:08.074Z,48.50
2022-12-18T08:03:34.847Z,48.60
2022-12-18T08:06:05.354Z,48.50
2022-12-18T08:08:32.086Z,48.50
2022-12-18T08:10:58.867Z,48.40
2022-12-18T08:13:25.741Z,48.50
2022-12-18T08:15:59.155Z,48.50
2022-12-18T08:18:26.459Z,48.50
2022-12-18T08:20:53.189Z,48.50
2022-12-18T08:23:19.943Z,48.40
2022-12-18T08:25:46.636Z,47.90
2022-12-18T08:28:13.438Z,48.10
2022-12-18T08:30:40.202Z,48.40
2022-12-18T08:33:07.408Z,48.40
2022-12-18T08:35:39.839Z,48.50
2022-12-18T08:38:09.437Z,47.60
2022-12-18T08:40:36.240Z,47.90
2022-12-18T08:43:21.524Z,48.40
2022-12-18T08:45:48.299Z,48.30
2022-12-18T08:48:20.605Z,48.40
2022-12-18T08:50:58.278Z,48.30
2022-12-18T08:53:25.214Z,48.20
2022-12-18T08:55:51.917Z,48.10
2022-12-18T08:58:18.983Z,47.20
2022-12-18T09:00:45.979Z,47.50
2022-12-18T09:03:16.472Z,48.10
2022-12-18T09:05:44.470Z,48.10
2022-12-18T09:08:11.190Z,48.10
2022-12-18T09:10:47.735Z,48.10
2022-12-18T09:13:15.380Z,48.10
2022-12-18T09:15:46.555Z,48.10
2022-12-18T09:18:13.590Z,47.60
2022-12-18T09:20:40.686Z,48.00
2022-12-18T09:23:07.898Z,47.70
2022-12-18T09:25:37.033Z,47.80
2022-12-18T09:28:08.662Z,48.00
2022-12-18T09:30:35.756Z,48.20
2022-12-18T09:33:05.530Z,48.10
2022-12-18T09:35:41.751Z,47.80
2022-12-18T09:38:09.754Z,47.20
2022-12-18T09:40:37.687Z,47.80
2022-12-18T09:43:05.557Z,47.90
2022-12-18T09:45:39.336Z,47.90
2022-12-18T09:48:06.833Z,47.20
2022-12-18T09:50:38.832Z,47.70
2022-12-18T09:53:07.640Z,47.70
2022-12-18T09:55:42.662Z,47.80
2022-12-18T09:58:10.763Z,47.80
2022-12-18T10:00:37.954Z,47.50
2022-12-18T10:03:10.442Z,47.70
2022-12-18T10:05:43.669Z,48.40
2022-12-18T10:08:13.445Z,47.80
2022-12-18T10:10:48.774Z,47.10
2022-12-18T10:13:23.692Z,47.80
2022-12-18T10:15:51.362Z,47.80
2022-12-18T10:18:24.279Z,47.80
2022-12-18T10:20:52.701Z,47.70
2022-12-18T10:23:25.419Z,47.70
2022-12-18T10:25:56.943Z,47.70
2022-12-18T10:28:23.523Z,47.70
2022-12-18T10:30:50.230Z,47.60
2022-12-18T10:33:17.498Z,47.70
2022-12-18T10:35:44.236Z,47.70
2022-12-18T10:38:17.186Z,47.70
2022-12-18T10:40:50.662Z,47.70
2022-12-18T10:43:20.677Z,47.70
2022-12-18T10:45:58.581Z,47.80
2022-12-18T10:48:25.292Z,47.80
2022-12-18T10:53:39.968Z,47.70
2022-12-18T10:56:06.797Z,47.70
2022-12-18T10:58:34.500Z,47.70
2022-12-18T11:01:14.367Z,47.70
2022-12-18T11:03:42.283Z,47.80
2022-12-18T11:06:16.040Z,47.70
2022-12-18T11:08:43.401Z,47.80
2022-12-18T11:11:23.150Z,47.70
2022-12-18T11:13:59.624Z,47.90
2022-12-18T11:16:26.718Z,47.80
2022-12-18T11:18:53.380Z,47.80
2022-12-18T11:21:20.140Z,47.90
2022-12-18T11:23:47.904Z,47.80
2022-12-18T11:26:14.583Z,47.40
2022-12-18T11:28:42.283Z,47.20
2022-12-18T11:31:19.830Z,48.00
2022-12-18T11:34:27.387Z,48.10
2022-12-18T11:36:44.459Z,48.10
2022-12-18T11:39:37.403Z,48.10
2022-12-18T11:42:19.415Z,48.30
2022-12-18T11:44:48.249Z,48.20
2022-12-18T11:47:35.184Z,48.20
2022-12-18T11:50:02.190Z,46.00
2022-12-18T11:52:33.396Z,46.60
2022-12-18T11:55:03.932Z,47.50
2022-12-18T11:57:30.530Z,47.50
2022-12-18T12:00:01.975Z,47.70
2022-12-18T12:02:47.523Z,48.40
2022-12-18T12:05:22.693Z,47.70
2022-12-18T12:08:09.677Z,47.80
2022-12-18T12:10:42.447Z,47.80
2022-12-18T12:13:12.067Z,47.80
2022-12-18T12:15:57.801Z,47.80
2022-12-18T12:18:24.473Z,47.80
2022-12-18T12:20:51.615Z,47.80
2022-12-18T12:23:34.918Z,47.80
2022-12-18T12:26:04.634Z,47.90
2022-12-18T12:28:40.802Z,47.70
2022-12-18T12:31:26.355Z,47.70
2022-12-18T12:34:15.997Z,47.70
2022-12-18T12:36:52.259Z,47.80
2022-12-18T12:39:19.610Z,47.60
2022-12-18T12:42:05.089Z,47.60
2022-12-18T12:44:33.103Z,47.60
2022-12-18T12:47:01.109Z,47.60
2022-12-18T12:49:29.059Z,47.50
2022-12-18T12:52:05.375Z,47.40
2022-12-18T12:54:33.208Z,47.40
2022-12-18T12:57:06.893Z,47.30
2022-12-18T12:59:41.062Z,47.30
2022-12-18T13:02:19.561Z,47.40
2022-12-18T13:04:58.670Z,47.30
2022-12-18T13:07:27.964Z,47.30
2022-12-18T13:10:17.260Z,47.30
2022-12-18T13:13:04.964Z,47.30
2022-12-18T13:15:39.841Z,47.30
2022-12-18T13:18:11.656Z,47.40
2022-12-18T13:20:38.252Z,47.40
2022-12-18T13:23:20.048Z,47.30
2022-12-18T13:25:47.220Z,47.40
2022-12-18T13:28:17.568Z,47.30
2022-12-18T13:30:50.800Z,47.50
2022-12-18T13:33:23.259Z,47.40
2022-12-18T13:36:08.815Z,47.30
2022-12-18T13:38:36.319Z,47.40
2022-12-18T13:41:18.101Z,47.40
2022-12-18T13:43:52.645Z,47.40
2022-12-18T13:46:22.458Z,47.40
2022-12-18T13:48:56.864Z,47.20
2022-12-18T13:51:23.723Z,47.30
2022-12-18T13:53:50.424Z,47.20
2022-12-18T13:56:17.763Z,47.10
2022-12-18T13:58:44.629Z,47.00
2022-12-18T14:01:24.565Z,47.10
2022-12-18T14:03:51.345Z,46.30
2022-12-18T14:06:18.199Z,46.00
2022-12-18T14:08:45.598Z,46.30
2022-12-18T14:11:20.293Z,46.60
2022-12-18T14:13:48.395Z,46.80
2022-12-18T14:16:15.902Z,46.20
2022-12-18T14:18:42.897Z,46.20
2022-12-18T14:21:20.952Z,46.10
2022-12-18T14:23:47.631Z,46.40
2022-12-18T14:26:40.531Z,46.70
2022-12-18T14:29:20.429Z,46.70
2022-12-18T14:32:04.519Z,47.00
2022-12-18T14:34:31.111Z,46.80
2022-12-18T14:36:57.753Z,47.00
2022-12-18T14:39:26.456Z,47.00
2022-12-18T14:41:54.335Z,47.00
2022-12-18T14:44:22.417Z,47.00
2022-12-18T14:46:49.246Z,46.70
2022-12-18T14:49:15.870Z,47.00
2022-12-18T14:51:42.692Z,47.00
2022-12-18T14:54:15.680Z,47.10
2022-12-18T14:56:46.444Z,47.10
2022-12-18T14:59:16.992Z,47.10
2022-12-18T15:01:48.212Z,47.20
2022-12-18T15:04:24.385Z,46.90
2022-12-18T15:06:51.407Z,46.70
2022-12-18T15:09:27.494Z,46.90
2022-12-18T15:11:58.010Z,46.90
2022-12-18T15:14:30.765Z,46.80
2022-12-18T15:16:57.545Z,46.70
2022-12-18T15:19:26.857Z,46.70
2022-12-18T15:21:53.665Z,46.70
2022-12-18T15:24:22.284Z,46.70
2022-12-18T15:26:48.944Z,47.00
2022-12-18T15:29:20.822Z,46.70
2022-12-18T15:31:58.713Z,46.70
2022-12-18T15:34:26.361Z,46.90
2022-12-18T15:36:53.118Z,47.00
2022-12-18T15:39:19.889Z,47.00
2022-12-18T15:42:06.880Z,46.90
2022-12-18T15:44:33.575Z,47.10
2022-12-18T15:47:00.270Z,46.70
2022-12-18T15:49:28.035Z,47.10
2022-12-18T15:51:55.706Z,46.90
2022-12-18T15:54:41.117Z,46.90
2022-12-18T15:57:24.584Z,47.00
2022-12-18T15:59:55.268Z,46.70
2022-12-18T16:02:23.852Z,46.80
2022-12-18T16:04:54.366Z,46.70
2022-12-18T16:07:25.212Z,46.70
2022-12-18T16:09:53.222Z,46.70
2022-12-18T16:12:23.521Z,46.70
2022-12-18T16:14:50.937Z,46.70
2022-12-18T16:17:18.210Z,46.80
2022-12-18T16:19:44.927Z,46.80
2022-12-18T16:22:16.975Z,46.80
2022-12-18T16:24:44.459Z,46.70
2022-12-18T16:27:11.210Z,46.70
2022-12-18T16:29:37.872Z,46.70
2022-12-18T16:32:04.673Z,46.80
2022-12-18T16:34:35.267Z,46.80
2022-12-18T16:37:05.726Z,46.70
2022-12-18T16:39:34.316Z,46.70
2022-12-18T16:42:02.692Z,46.80
2022-12-18T16:44:34.140Z,46.70
2022-12-18T16:47:03.052Z,46.70
2022-12-18T16:49:30.130Z,46.80
2022-12-18T16:51:57.979Z,46.70
2022-12-18T16:54:25.022Z,46.80
2022-12-18T16:56:52.016Z,46.80
2022-12-18T16:59:18.831Z,46.70
2022-12-18T17:01:46.746Z,46.70
2022-12-18T17:04:13.560Z,46.70
2022-12-18T17:06:41.009Z,46.70
2022-12-18T17:09:09.253Z,46.70
2022-12-18T17:11:36.120Z,46.70
2022-12-18T17:14:06.530Z,46.70
2022-12-18T17:16:33.344Z,46.70
2022-12-18T17:19:01.216Z,46.80
2022-12-18T17:21:28.085Z,46.70
2022-12-18T17:23:54.761Z,46.70
2022-12-18T17:26:21.571Z,46.70
2022-12-18T17:28:48.276Z,46.80
2022-12-18T17:31:17.413Z,46.80
2022-12-18T17:33:44.407Z,46.70
2022-12-18T17:36:11.384Z,46.80
2022-12-18T17:38:38.294Z,46.40
2022-12-18T17:41:05.534Z,46.60
2022-12-18T17:43:32.926Z,46.70
2022-12-18T17:46:02.112Z,45.80
2022-12-18T17:48:29.050Z,46.40
2022-12-18T17:50:55.943Z,46.20
2022-12-18T17:53:23.001Z,46.50
2022-12-18T17:55:56.625Z,46.60
2022-12-18T17:58:24.487Z,47.00
2022-12-18T18:00:51.729Z,46.60
2022-12-18T18:03:19.208Z,46.70
2022-12-18T18:05:46.598Z,46.70
2022-12-18T18:08:14.023Z,46.70
2022-12-18T18:10:41.209Z,46.60
2022-12-18T18:13:38.656Z,46.70
2022-12-18T18:16:08.255Z,46.60
2022-12-18T18:18:35.020Z,46.60
2022-12-18T18:21:05.364Z,46.60
2022-12-18T18:23:32.894Z,46.60
2022-12-18T18:26:06.145Z,46.60
2022-12-18T18:28:32.913Z,46.60
2022-12-18T18:31:05.080Z,46.60
2022-12-18T18:33:31.999Z,46.60
2022-12-18T18:35:58.704Z,46.60
2022-12-18T18:38:25.628Z,46.60
2022-12-18T18:40:59.400Z,46.60
2022-12-18T18:43:26.101Z,46.60
2022-12-18T18:45:57.425Z,46.60
2022-12-18T18:48:24.318Z,46.60
2022-12-18T18:50:57.082Z,46.60
2022-12-18T18:53:24.211Z,46.50
2022-12-18T18:56:17.234Z,46.60
2022-12-18T18:58:38.550Z,46.60
2022-12-18T19:01:07.025Z,46.60
2022-12-18T19:03:34.218Z,46.60
2022-12-18T19:06:01.423Z,46.50
2022-12-18T19:08:29.053Z,46.60
2022-12-18T19:10:57.905Z,46.60
2022-12-18T19:13:26.897Z,46.60
2022-12-18T19:16:02.638Z,46.50
2022-12-18T19:18:29.673Z,46.60
2022-12-18T19:20:57.131Z,46.50
2022-12-18T19:23:23.846Z,46.50
2022-12-18T19:25:52.979Z,46.50
2022-12-18T19:28:36.958Z,46.50
2022-12-18T19:31:04.522Z,46.40
2022-12-18T19:33:48.176Z,46.50
2022-12-18T19:36:17.501Z,46.40
2022-12-18T19:38:44.897Z,46.50
2022-12-18T19:41:12.460Z,46.30
2022-12-18T19:43:40.065Z,46.30
2022-12-18T19:46:07.227Z,46.30
2022-12-18T19:48:34.067Z,46.10
2022-12-18T19:51:07.961Z,46.10
2022-12-18T19:53:34.773Z,46.10
2022-12-18T19:56:05.581Z,46.10
2022-12-18T19:58:32.349Z,46.40
2022-12-18T20:00:59.089Z,46.10
2022-12-18T20:03:32.100Z,45.80
2022-12-18T20:06:12.727Z,45.40
2022-12-18T20:08:39.512Z,46.00
2022-12-18T20:11:06.331Z,46.60
2022-12-18T20:13:33.408Z,46.00
2022-12-18T20:16:00.192Z,46.00
2022-12-18T20:18:26.999Z,46.00
2022-12-18T20:20:53.792Z,45.90
2022-12-18T20:23:23.057Z,46.00
2022-12-18T20:25:49.846Z,46.00
2022-12-18T20:28:16.535Z,45.90
2022-12-18T20:30:43.270Z,46.00
2022-12-18T20:33:09.999Z,46.10
2022-12-18T20:35:36.931Z,45.90
2022-12-18T20:38:03.734Z,46.10
2022-12-18T20:40:31.295Z,45.90
2022-12-18T20:42:57.995Z,45.90
2022-12-18T20:45:24.718Z,45.90
2022-12-18T20:47:53.893Z,45.90
2022-12-18T20:50:20.586Z,45.90
2022-12-18T20:52:47.729Z,45.90
2022-12-18T20:55:14.529Z,45.80
2022-12-18T20:57:41.247Z,45.70
2022-12-18T21:00:08.158Z,45.70
2022-12-18T21:02:35.738Z,45.70
2022-12-18T21:05:02.499Z,45.70
2022-12-18T21:07:29.246Z,45.60
2022-12-18T21:09:55.902Z,45.70
2022-12-18T21:12:40.585Z,45.50
2022-12-18T21:15:15.117Z,45.70
2022-12-18T21:17:45.068Z,45.60
2022-12-18T21:20:17.419Z,45.70
2022-12-18T21:22:45.023Z,45.60
2022-12-18T21:25:11.682Z,45.70
2022-12-18T21:27:38.446Z,45.80
2022-12-18T21:30:05.397Z,45.70
2022-12-18T21:32:33.575Z,45.80
2022-12-18T21:35:00.445Z,45.70
2022-12-18T21:37:27.114Z,45.70
2022-12-18T21:39:53.870Z,45.80
2022-12-18T21:42:39.530Z,45.70
2022-12-18T21:45:06.497Z,45.80
2022-12-18T21:47:33.201Z,45.80
2022-12-18T21:49:59.915Z,45.80
2022-12-18T21:52:31.723Z,45.70
2022-12-18T21:55:03.271Z,45.80
2022-12-18T21:57:34.954Z,45.80
2022-12-18T22:00:02.261Z,45.80
2022-12-18T22:02:29.207Z,45.80
2022-12-18T22:04:56.034Z,45.70
2022-12-18T22:07:23.293Z,45.70
2022-12-18T22:09:49.988Z,45.70
2022-12-18T22:12:35.360Z,45.70
2022-12-18T22:15:05.581Z,45.70
2022-12-18T22:17:32.446Z,45.60
2022-12-18T22:19:59.170Z,45.60
2022-12-18T22:22:25.948Z,45.60
2022-12-18T22:24:52.678Z,45.50
2022-12-18T22:27:19.445Z,45.50
2022-12-18T22:30:04.461Z,45.50
2022-12-18T22:32:31.944Z,45.50
2022-12-18T22:35:04.863Z,45.40
2022-12-18T22:37:33.901Z,45.50
2022-12-18T22:40:03.331Z,45.50
2022-12-18T22:42:30.630Z,45.60
2022-12-18T22:44:57.344Z,45.60
2022-12-18T22:47:29.181Z,45.60
2022-12-18T22:49:56.602Z,45.60
2022-12-18T22:52:24.317Z,45.50
2022-12-18T22:54:53.549Z,45.60
2022-12-18T22:57:21.709Z,45.50
2022-12-18T22:59:49.202Z,45.60
2022-12-18T23:02:17.307Z,45.60
2022-12-18T23:04:44.936Z,45.50
2022-12-18T23:07:11.699Z,45.50
2022-12-18T23:09:39.439Z,45.60
2022-12-18T23:12:06.313Z,45.50
2022-12-18T23:14:33.039Z,45.50
2022-12-18T23:16:59.939Z,45.50
2022-12-18T23:19:26.686Z,45.40
2022-12-18T23:21:54.539Z,45.60
2022-12-18T23:24:23.308Z,45.50
2022-12-18T23:26:50.039Z,45.40
2022-12-18T23:29:16.697Z,45.40
2022-12-18T23:31:43.443Z,45.40
2022-12-18T23:34:11.282Z,45.40
2022-12-18T23:36:45.210Z,45.50
2022-12-18T23:39:15.480Z,45.50
2022-12-18T23:41:56.149Z,45.50
2022-12-18T23:44:22.873Z,45.50
2022-12-18T23:46:49.571Z,45.50
2022-12-18T23:49:16.297Z,45.40
2022-12-18T23:51:42.951Z,45.60
2022-12-18T23:54:10.305Z,45.40
2022-12-18T23:56:37.020Z,45.50
2022-12-18T23:59:03.697Z,46.00
